Sunday, January 20, 2019, 1:54 AM EST
Back to Local

KORE, Orange, Orange Municipal Airport

Location: Orange, MA, United States Lat: 42.572
Local Time: 1:54 AM EST ( 6:54 GMT) Lon: -72.278
Time Zone: US/Eastern Elev: 554 ft

Show me the last for .
Show Decoded

2019-01-20 00:52 METAR KORE 200552Z AUTO 06006KT 1/2SM SN FZFG M04/M06 A2997 RMK AO2 SLP156 P0007
                 60019 T10391061 11022 21039 58047 $ =
2019-01-20 00:13 METAR KORE 200513Z AUTO 05007KT 010V080 3/4SM -SN BR M04/M06 A3000 RMK AO2 P0001
                 T10391061 $ =
2019-01-19 23:52 METAR KORE 200452Z AUTO 05006KT 1SM -SN BR M04/M06 A3003 RMK AO2 PRESFR SLP176
                 P0005 T10391061 410111100 $ =
2019-01-19 23:41 METAR KORE 200441Z AUTO 05004KT 1SM -SN BR M04/M06 A3004 RMK AO2 P0004 T10391061
                 $ =
2019-01-19 22:52 METAR KORE 200352Z AUTO VRB03KT 3/4SM -SN BR M04/M06 A3009 RMK AO2 SLP198 P0005
                 T10391061 $ =
2019-01-19 22:31 METAR KORE 200331Z AUTO 04003KT 3/4SM -SN BR M04/M06 A3010 RMK AO2 P0003
                 T10391061 $ =
2019-01-19 22:20 METAR KORE 200320Z AUTO 06007KT 1SM -SN BR M04/M06 A3011 RMK AO2 P0002 T10391061
                 $ =
2019-01-19 22:07 METAR KORE 200307Z AUTO 07005KT 1SM -SN BKN010 OVC019 M03/M07 A3011 RMK AO2
                 P0001 T10331067 $ =
2019-01-19 22:00 METAR KORE 200300Z AUTO 08005KT 1 1/2SM -SN BKN012 OVC019 M03/M07 A3011 RMK AO2
                 P0001 T10331067 =
2019-01-19 21:52 METAR KORE 200252Z AUTO VRB03KT 2 1/2SM -SN OVC019 M03/M07 A3011 RMK AO2 SLP204
                 P0001 60002 T10331067 58022 =
2019-01-19 21:34 METAR KORE 200234Z AUTO 04003KT 2 1/2SM -SN OVC018 M04/M07 A3011 RMK AO2 P0001
                 T10391067 =
2019-01-19 21:13 METAR KORE 200213Z AUTO 00000KT 1 1/2SM -SN BR OVC017 M04/M06 A3013 RMK AO2
                 P0001 T10391061 =
2019-01-19 20:52 METAR KORE 200152Z AUTO 04004KT 2 1/2SM -SN BKN019 OVC032 M03/M07 A3013 RMK AO2
                 SLP213 P0001 T10331067 =
2019-01-19 20:19 METAR KORE 200119Z AUTO 06003KT 2 1/2SM -SN BKN021 OVC030 M03/M07 A3016 RMK AO2
                 P0000 T10331067 =
2019-01-19 19:59 METAR KORE 200059Z AUTO 10004KT 1 1/2SM -SN OVC021 M03/M07 A3017 RMK AO2 P0000
                 T10331072 =
2019-01-19 19:52 METAR KORE 200052Z AUTO 11005KT 2SM -SN OVC023 M03/M07 A3017 RMK AO2 SNB24
                 SLP226 P0000 T10281072 =
2019-01-19 18:52 METAR KORE 192352Z AUTO 10004KT 10SM OVC024 M02/M11 A3017 RMK AO2 SLP228
                 T10221106 11011 21022 55014 =
2019-01-19 18:19 METAR KORE 192319Z AUTO 11004KT 10SM BKN023 OVC042 M02/M11 A3016 RMK AO2
                 T10221111 =
2019-01-19 17:52 METAR KORE 192252Z AUTO 11008KT 10SM OVC044 M02/M11 A3016 RMK AO2 SLP222
                 T10221111 =
2019-01-19 16:52 METAR KORE 192152Z AUTO 11006KT 10SM OVC043 M02/M11 A3022 RMK AO2 SLP243
                 T10171106 =
2019-01-19 15:52 METAR KORE 192052Z AUTO 11005KT 10SM BKN038 OVC047 M01/M10 A3021 RMK AO2 SLP240
                 T10111100 55003 =
2019-01-19 14:52 METAR KORE 191952Z AUTO 00000KT 10SM BKN038 OVC047 M01/M11 A3020 RMK AO2 SLP234
                 T10111106 =
2019-01-19 13:52 METAR KORE 191852Z AUTO 09004KT 10SM OVC037 M01/M11 A3020 RMK AO2 SLP235
                 T10111106 =
2019-01-19 12:52 METAR KORE 191752Z AUTO 00000KT 10SM OVC038 M02/M11 A3022 RMK AO2 SLP243
                 T10171111 11017 21094 58024 =
2019-01-19 11:52 METAR KORE 191652Z AUTO 00000KT 10SM FEW040 OVC100 M02/M11 A3026 RMK AO2 SLP255
                 T10221111 =
2019-01-19 10:52 METAR KORE 191552Z AUTO 00000KT 10SM OVC038 M03/M11 A3029 RMK AO2 SLP266
                 T10281111 =
2019-01-19 09:52 METAR KORE 191452Z AUTO 01004KT 10SM OVC039 M03/M11 A3030 RMK AO2 SLP267
                 T10281106 53019 =
2019-01-19 08:52 METAR KORE 191352Z AUTO 01006KT 10SM FEW039 OVC120 M04/M09 A3026 RMK AO2 SLP255
                 T10391094 =
2019-01-19 07:52 METAR KORE 191252Z AUTO 00000KT 10SM SCT040 OVC110 M07/M09 A3024 RMK AO2 SLP251
                 T10721094 =
2019-01-19 06:52 METAR KORE 191152Z AUTO 00000KT 10SM CLR M09/M12 A3024 RMK AO2 SLP249 I1000
                 I6000 T10941117 11028 21100 53021 =
2019-01-19 05:52 METAR KORE 191052Z AUTO 00000KT 10SM CLR M09/M11 A3020 RMK AO2 SLP236 I1000
                 T10941111 =
2019-01-19 04:52 METAR KORE 190952Z AUTO 00000KT 10SM CLR M09/M11 A3018 RMK AO2 SLP229 T10891106
                 =
2019-01-19 03:52 METAR KORE 190852Z AUTO 00000KT 10SM CLR M05/M08 A3018 RMK AO2 SLP227 T10501083
                 51022 =
2019-01-19 02:52 METAR KORE 190752Z AUTO 00000KT 10SM CLR M06/M09 A3016 RMK AO2 SLP220 T10611094
                 =

Support USWX by starting your Amazon purchase here.